<?xml version="1.0" encoding="UTF-8" ?>
<gpx version="1.1" xmlns:xsi="http://www.w3.org/2001/XMLSchema-instance" 
    xmlns="http://www.topografix.com/GPX/1/1" 
    xsi:schemaLocation="http://www.topografix.com/GPX/1/1 http://www.topografix.com/GPX/1/1/gpx.xsd" 
    creator="Openrunner - https://www.openrunner.com" >	<trk>
						<name>Les Aqueducs - Orlénas-21745772</name>
						<trkseg>
					<trkpt lat="45.658620" lon="4.718800">
						<ele>305</ele>
						<time>2025-06-25T08:41:05Z</time>
					</trkpt>
					<trkpt lat="45.658620" lon="4.718950">
						<ele>305</ele>
						<time>2025-06-25T08:41:19Z</time>
					</trkpt>
					<trkpt lat="45.658610" lon="4.719270">
						<ele>303</ele>
						<time>2025-06-25T08:41:49Z</time>
					</trkpt>
					<trkpt lat="45.658610" lon="4.719310">
						<ele>303</ele>
						<time>2025-06-25T08:41:53Z</time>
					</trkpt>
					<trkpt lat="45.658600" lon="4.719390">
						<ele>302</ele>
						<time>2025-06-25T08:42:00Z</time>
					</trkpt>
					<trkpt lat="45.658600" lon="4.719610">
						<ele>301</ele>
						<time>2025-06-25T08:42:21Z</time>
					</trkpt>
					<trkpt lat="45.658600" lon="4.719680">
						<ele>300</ele>
						<time>2025-06-25T08:42:27Z</time>
					</trkpt>
					<trkpt lat="45.658620" lon="4.719760">
						<ele>300</ele>
						<time>2025-06-25T08:42:35Z</time>
					</trkpt>
					<trkpt lat="45.658610" lon="4.719850">
						<ele>299</ele>
						<time>2025-06-25T08:42:44Z</time>
					</trkpt>
					<trkpt lat="45.658580" lon="4.720110">
						<ele>298</ele>
						<time>2025-06-25T08:43:08Z</time>
					</trkpt>
					<trkpt lat="45.658490" lon="4.720430">
						<ele>296</ele>
						<time>2025-06-25T08:43:40Z</time>
					</trkpt>
					<trkpt lat="45.658410" lon="4.720680">
						<ele>295</ele>
						<time>2025-06-25T08:44:06Z</time>
					</trkpt>
					<trkpt lat="45.658410" lon="4.720710">
						<ele>295</ele>
						<time>2025-06-25T08:44:09Z</time>
					</trkpt>
					<trkpt lat="45.658410" lon="4.720680">
						<ele>295</ele>
						<time>2025-06-25T08:44:12Z</time>
					</trkpt>
					<trkpt lat="45.658780" lon="4.720820">
						<ele>292</ele>
						<time>2025-06-25T08:45:03Z</time>
					</trkpt>
					<trkpt lat="45.659060" lon="4.721010">
						<ele>290</ele>
						<time>2025-06-25T08:45:44Z</time>
					</trkpt>
					<trkpt lat="45.659370" lon="4.721200">
						<ele>289</ele>
						<time>2025-06-25T08:46:29Z</time>
					</trkpt>
					<trkpt lat="45.659440" lon="4.721210">
						<ele>289</ele>
						<time>2025-06-25T08:46:38Z</time>
					</trkpt>
					<trkpt lat="45.660070" lon="4.721350">
						<ele>286</ele>
						<time>2025-06-25T08:48:04Z</time>
					</trkpt>
					<trkpt lat="45.660670" lon="4.721340">
						<ele>280</ele>
						<time>2025-06-25T08:49:24Z</time>
					</trkpt>
					<trkpt lat="45.661060" lon="4.721420">
						<ele>281</ele>
						<time>2025-06-25T08:50:16Z</time>
					</trkpt>
					<trkpt lat="45.661050" lon="4.721460">
						<ele>281</ele>
						<time>2025-06-25T08:50:20Z</time>
					</trkpt>
					<trkpt lat="45.661060" lon="4.721480">
						<ele>281</ele>
						<time>2025-06-25T08:50:22Z</time>
					</trkpt>
					<trkpt lat="45.661150" lon="4.721630">
						<ele>282</ele>
						<time>2025-06-25T08:50:41Z</time>
					</trkpt>
					<trkpt lat="45.661280" lon="4.721880">
						<ele>282</ele>
						<time>2025-06-25T08:51:10Z</time>
					</trkpt>
					<trkpt lat="45.661400" lon="4.722420">
						<ele>281</ele>
						<time>2025-06-25T08:52:03Z</time>
					</trkpt>
					<trkpt lat="45.661440" lon="4.722870">
						<ele>280</ele>
						<time>2025-06-25T08:52:45Z</time>
					</trkpt>
					<trkpt lat="45.661420" lon="4.723080">
						<ele>279</ele>
						<time>2025-06-25T08:53:05Z</time>
					</trkpt>
					<trkpt lat="45.661210" lon="4.723670">
						<ele>275</ele>
						<time>2025-06-25T08:54:07Z</time>
					</trkpt>
					<trkpt lat="45.661190" lon="4.724050">
						<ele>276</ele>
						<time>2025-06-25T08:54:42Z</time>
					</trkpt>
					<trkpt lat="45.661300" lon="4.724260">
						<ele>281</ele>
						<time>2025-06-25T08:55:07Z</time>
					</trkpt>
					<trkpt lat="45.661330" lon="4.724430">
						<ele>283</ele>
						<time>2025-06-25T08:55:23Z</time>
					</trkpt>
					<trkpt lat="45.661300" lon="4.724690">
						<ele>284</ele>
						<time>2025-06-25T08:55:48Z</time>
					</trkpt>
					<trkpt lat="45.661290" lon="4.725120">
						<ele>286</ele>
						<time>2025-06-25T08:56:28Z</time>
					</trkpt>
					<trkpt lat="45.661510" lon="4.725400">
						<ele>294</ele>
						<time>2025-06-25T08:57:07Z</time>
					</trkpt>
					<trkpt lat="45.661550" lon="4.725620">
						<ele>296</ele>
						<time>2025-06-25T08:57:28Z</time>
					</trkpt>
					<trkpt lat="45.661440" lon="4.725900">
						<ele>295</ele>
						<time>2025-06-25T08:57:58Z</time>
					</trkpt>
					<trkpt lat="45.661220" lon="4.726150">
						<ele>292</ele>
						<time>2025-06-25T08:58:36Z</time>
					</trkpt>
					<trkpt lat="45.661160" lon="4.726400">
						<ele>293</ele>
						<time>2025-06-25T08:59:00Z</time>
					</trkpt>
					<trkpt lat="45.661080" lon="4.726770">
						<ele>295</ele>
						<time>2025-06-25T08:59:36Z</time>
					</trkpt>
					<trkpt lat="45.661090" lon="4.727070">
						<ele>297</ele>
						<time>2025-06-25T09:00:04Z</time>
					</trkpt>
					<trkpt lat="45.661150" lon="4.727310">
						<ele>299</ele>
						<time>2025-06-25T09:00:28Z</time>
					</trkpt>
					<trkpt lat="45.661170" lon="4.727380">
						<ele>300</ele>
						<time>2025-06-25T09:00:35Z</time>
					</trkpt>
					<trkpt lat="45.661110" lon="4.727560">
						<ele>299</ele>
						<time>2025-06-25T09:00:54Z</time>
					</trkpt>
					<trkpt lat="45.661120" lon="4.727780">
						<ele>298</ele>
						<time>2025-06-25T09:01:14Z</time>
					</trkpt>
					<trkpt lat="45.661770" lon="4.729190">
						<ele>298</ele>
						<time>2025-06-25T09:03:52Z</time>
					</trkpt>
					<trkpt lat="45.661990" lon="4.729830">
						<ele>295</ele>
						<time>2025-06-25T09:04:58Z</time>
					</trkpt>
					<trkpt lat="45.662010" lon="4.729850">
						<ele>295</ele>
						<time>2025-06-25T09:05:02Z</time>
					</trkpt>
					<trkpt lat="45.662360" lon="4.730060">
						<ele>297</ele>
						<time>2025-06-25T09:05:52Z</time>
					</trkpt>
					<trkpt lat="45.662420" lon="4.730130">
						<ele>298</ele>
						<time>2025-06-25T09:06:03Z</time>
					</trkpt>
					<trkpt lat="45.662470" lon="4.730200">
						<ele>298</ele>
						<time>2025-06-25T09:06:12Z</time>
					</trkpt>
					<trkpt lat="45.662510" lon="4.730380">
						<ele>299</ele>
						<time>2025-06-25T09:06:30Z</time>
					</trkpt>
					<trkpt lat="45.662510" lon="4.730510">
						<ele>298</ele>
						<time>2025-06-25T09:06:42Z</time>
					</trkpt>
					<trkpt lat="45.662490" lon="4.730610">
						<ele>298</ele>
						<time>2025-06-25T09:06:51Z</time>
					</trkpt>
					<trkpt lat="45.662460" lon="4.730700">
						<ele>298</ele>
						<time>2025-06-25T09:07:01Z</time>
					</trkpt>
					<trkpt lat="45.662450" lon="4.730780">
						<ele>298</ele>
						<time>2025-06-25T09:07:08Z</time>
					</trkpt>
					<trkpt lat="45.662470" lon="4.730820">
						<ele>298</ele>
						<time>2025-06-25T09:07:13Z</time>
					</trkpt>
					<trkpt lat="45.662470" lon="4.730820">
						<ele>298</ele>
						<time>2025-06-25T09:07:13Z</time>
					</trkpt>
					<trkpt lat="45.663450" lon="4.731170">
						<ele>303</ele>
						<time>2025-06-25T09:09:28Z</time>
					</trkpt>
					<trkpt lat="45.664030" lon="4.731370">
						<ele>303</ele>
						<time>2025-06-25T09:10:47Z</time>
					</trkpt>
					<trkpt lat="45.664020" lon="4.731310">
						<ele>303</ele>
						<time>2025-06-25T09:10:53Z</time>
					</trkpt>
					<trkpt lat="45.664030" lon="4.731370">
						<ele>303</ele>
						<time>2025-06-25T09:10:59Z</time>
					</trkpt>
					<trkpt lat="45.664160" lon="4.732210">
						<ele>304</ele>
						<time>2025-06-25T09:12:19Z</time>
					</trkpt>
					<trkpt lat="45.664210" lon="4.732620">
						<ele>305</ele>
						<time>2025-06-25T09:12:58Z</time>
					</trkpt>
					<trkpt lat="45.664250" lon="4.732650">
						<ele>305</ele>
						<time>2025-06-25T09:13:04Z</time>
					</trkpt>
					<trkpt lat="45.664310" lon="4.732700">
						<ele>304</ele>
						<time>2025-06-25T09:13:13Z</time>
					</trkpt>
					<trkpt lat="45.664460" lon="4.733090">
						<ele>303</ele>
						<time>2025-06-25T09:13:55Z</time>
					</trkpt>
					<trkpt lat="45.664650" lon="4.733400">
						<ele>302</ele>
						<time>2025-06-25T09:14:33Z</time>
					</trkpt>
					<trkpt lat="45.665130" lon="4.734000">
						<ele>299</ele>
						<time>2025-06-25T09:15:58Z</time>
					</trkpt>
					<trkpt lat="45.665490" lon="4.734520">
						<ele>299</ele>
						<time>2025-06-25T09:17:06Z</time>
					</trkpt>
					<trkpt lat="45.665760" lon="4.734940">
						<ele>300</ele>
						<time>2025-06-25T09:18:00Z</time>
					</trkpt>
					<trkpt lat="45.666090" lon="4.735480">
						<ele>300</ele>
						<time>2025-06-25T09:19:07Z</time>
					</trkpt>
					<trkpt lat="45.666310" lon="4.735920">
						<ele>300</ele>
						<time>2025-06-25T09:19:57Z</time>
					</trkpt>
					<trkpt lat="45.666370" lon="4.735990">
						<ele>300</ele>
						<time>2025-06-25T09:20:07Z</time>
					</trkpt>
					<trkpt lat="45.666880" lon="4.736610">
						<ele>301</ele>
						<time>2025-06-25T09:21:37Z</time>
					</trkpt>
					<trkpt lat="45.667240" lon="4.737070">
						<ele>300</ele>
						<time>2025-06-25T09:22:41Z</time>
					</trkpt>
					<trkpt lat="45.667760" lon="4.737900">
						<ele>299</ele>
						<time>2025-06-25T09:24:25Z</time>
					</trkpt>
					<trkpt lat="45.667990" lon="4.738310">
						<ele>300</ele>
						<time>2025-06-25T09:25:14Z</time>
					</trkpt>
					<trkpt lat="45.668060" lon="4.738470">
						<ele>300</ele>
						<time>2025-06-25T09:25:32Z</time>
					</trkpt>
					<trkpt lat="45.668100" lon="4.738490">
						<ele>299</ele>
						<time>2025-06-25T09:25:37Z</time>
					</trkpt>
					<trkpt lat="45.668060" lon="4.738470">
						<ele>300</ele>
						<time>2025-06-25T09:25:43Z</time>
					</trkpt>
					<trkpt lat="45.668030" lon="4.738750">
						<ele>299</ele>
						<time>2025-06-25T09:26:09Z</time>
					</trkpt>
					<trkpt lat="45.667880" lon="4.739420">
						<ele>296</ele>
						<time>2025-06-25T09:27:15Z</time>
					</trkpt>
					<trkpt lat="45.667870" lon="4.739620">
						<ele>294</ele>
						<time>2025-06-25T09:27:34Z</time>
					</trkpt>
					<trkpt lat="45.667960" lon="4.739800">
						<ele>293</ele>
						<time>2025-06-25T09:27:54Z</time>
					</trkpt>
					<trkpt lat="45.668330" lon="4.740160">
						<ele>290</ele>
						<time>2025-06-25T09:28:54Z</time>
					</trkpt>
					<trkpt lat="45.668390" lon="4.740350">
						<ele>288</ele>
						<time>2025-06-25T09:29:13Z</time>
					</trkpt>
					<trkpt lat="45.668390" lon="4.740990">
						<ele>281</ele>
						<time>2025-06-25T09:30:13Z</time>
					</trkpt>
					<trkpt lat="45.668310" lon="4.741800">
						<ele>273</ele>
						<time>2025-06-25T09:31:29Z</time>
					</trkpt>
					<trkpt lat="45.668320" lon="4.742120">
						<ele>271</ele>
						<time>2025-06-25T09:31:59Z</time>
					</trkpt>
					<trkpt lat="45.668370" lon="4.742300">
						<ele>270</ele>
						<time>2025-06-25T09:32:17Z</time>
					</trkpt>
					<trkpt lat="45.668370" lon="4.742340">
						<ele>270</ele>
						<time>2025-06-25T09:32:21Z</time>
					</trkpt>
					<trkpt lat="45.668400" lon="4.742730">
						<ele>269</ele>
						<time>2025-06-25T09:32:58Z</time>
					</trkpt>
					<trkpt lat="45.668340" lon="4.743070">
						<ele>269</ele>
						<time>2025-06-25T09:33:30Z</time>
					</trkpt>
					<trkpt lat="45.668300" lon="4.743400">
						<ele>268</ele>
						<time>2025-06-25T09:34:02Z</time>
					</trkpt>
					<trkpt lat="45.668280" lon="4.743830">
						<ele>268</ele>
						<time>2025-06-25T09:34:42Z</time>
					</trkpt>
					<trkpt lat="45.668270" lon="4.743920">
						<ele>268</ele>
						<time>2025-06-25T09:34:50Z</time>
					</trkpt>
					<trkpt lat="45.668130" lon="4.744390">
						<ele>266</ele>
						<time>2025-06-25T09:35:38Z</time>
					</trkpt>
					<trkpt lat="45.668100" lon="4.744530">
						<ele>265</ele>
						<time>2025-06-25T09:35:52Z</time>
					</trkpt>
					<trkpt lat="45.668070" lon="4.744780">
						<ele>264</ele>
						<time>2025-06-25T09:36:15Z</time>
					</trkpt>
					<trkpt lat="45.668110" lon="4.745080">
						<ele>263</ele>
						<time>2025-06-25T09:36:44Z</time>
					</trkpt>
					<trkpt lat="45.668120" lon="4.745300">
						<ele>261</ele>
						<time>2025-06-25T09:37:04Z</time>
					</trkpt>
					<trkpt lat="45.668110" lon="4.745520">
						<ele>259</ele>
						<time>2025-06-25T09:37:25Z</time>
					</trkpt>
					<trkpt lat="45.668050" lon="4.746020">
						<ele>253</ele>
						<time>2025-06-25T09:38:12Z</time>
					</trkpt>
					<trkpt lat="45.668010" lon="4.746310">
						<ele>249</ele>
						<time>2025-06-25T09:38:40Z</time>
					</trkpt>
					<trkpt lat="45.667960" lon="4.746600">
						<ele>245</ele>
						<time>2025-06-25T09:39:08Z</time>
					</trkpt>
					<trkpt lat="45.667890" lon="4.746910">
						<ele>240</ele>
						<time>2025-06-25T09:39:38Z</time>
					</trkpt>
					<trkpt lat="45.667830" lon="4.747050">
						<ele>238</ele>
						<time>2025-06-25T09:39:53Z</time>
					</trkpt>
					<trkpt lat="45.667700" lon="4.747130">
						<ele>237</ele>
						<time>2025-06-25T09:40:12Z</time>
					</trkpt>
					<trkpt lat="45.667710" lon="4.747190">
						<ele>236</ele>
						<time>2025-06-25T09:40:18Z</time>
					</trkpt>
					<trkpt lat="45.667810" lon="4.747190">
						<ele>236</ele>
						<time>2025-06-25T09:40:31Z</time>
					</trkpt>
					<trkpt lat="45.667890" lon="4.747160">
						<ele>236</ele>
						<time>2025-06-25T09:40:42Z</time>
					</trkpt>
					<trkpt lat="45.668060" lon="4.747030">
						<ele>239</ele>
						<time>2025-06-25T09:41:08Z</time>
					</trkpt>
					<trkpt lat="45.668130" lon="4.747010">
						<ele>239</ele>
						<time>2025-06-25T09:41:18Z</time>
					</trkpt>
					<trkpt lat="45.668160" lon="4.747030">
						<ele>239</ele>
						<time>2025-06-25T09:41:22Z</time>
					</trkpt>
					<trkpt lat="45.668170" lon="4.747110">
						<ele>237</ele>
						<time>2025-06-25T09:41:30Z</time>
					</trkpt>
					<trkpt lat="45.668170" lon="4.747150">
						<ele>237</ele>
						<time>2025-06-25T09:41:33Z</time>
					</trkpt>
					<trkpt lat="45.668130" lon="4.747480">
						<ele>231</ele>
						<time>2025-06-25T09:42:05Z</time>
					</trkpt>
					<trkpt lat="45.667980" lon="4.748540">
						<ele>220</ele>
						<time>2025-06-25T09:43:45Z</time>
					</trkpt>
					<trkpt lat="45.667980" lon="4.748590">
						<ele>220</ele>
						<time>2025-06-25T09:43:50Z</time>
					</trkpt>
					<trkpt lat="45.667900" lon="4.748700">
						<ele>219</ele>
						<time>2025-06-25T09:44:05Z</time>
					</trkpt>
					<trkpt lat="45.667610" lon="4.748940">
						<ele>216</ele>
						<time>2025-06-25T09:44:50Z</time>
					</trkpt>
					<trkpt lat="45.667570" lon="4.748960">
						<ele>216</ele>
						<time>2025-06-25T09:44:55Z</time>
					</trkpt>
					<trkpt lat="45.667630" lon="4.749270">
						<ele>214</ele>
						<time>2025-06-25T09:45:25Z</time>
					</trkpt>
					<trkpt lat="45.667760" lon="4.750120">
						<ele>211</ele>
						<time>2025-06-25T09:46:46Z</time>
					</trkpt>
					<trkpt lat="45.667790" lon="4.750160">
						<ele>211</ele>
						<time>2025-06-25T09:46:52Z</time>
					</trkpt>
					<trkpt lat="45.668040" lon="4.750490">
						<ele>211</ele>
						<time>2025-06-25T09:47:37Z</time>
					</trkpt>
					<trkpt lat="45.668310" lon="4.750840">
						<ele>210</ele>
						<time>2025-06-25T09:48:26Z</time>
					</trkpt>
					<trkpt lat="45.668710" lon="4.751480">
						<ele>209</ele>
						<time>2025-06-25T09:49:46Z</time>
					</trkpt>
					<trkpt lat="45.669030" lon="4.752000">
						<ele>209</ele>
						<time>2025-06-25T09:50:51Z</time>
					</trkpt>
					<trkpt lat="45.669420" lon="4.752570">
						<ele>209</ele>
						<time>2025-06-25T09:52:05Z</time>
					</trkpt>
					<trkpt lat="45.669430" lon="4.752920">
						<ele>209</ele>
						<time>2025-06-25T09:52:38Z</time>
					</trkpt>
					<trkpt lat="45.669430" lon="4.752970">
						<ele>209</ele>
						<time>2025-06-25T09:52:42Z</time>
					</trkpt>
					<trkpt lat="45.670340" lon="4.753110">
						<ele>208</ele>
						<time>2025-06-25T09:54:44Z</time>
					</trkpt>
					<trkpt lat="45.670370" lon="4.753110">
						<ele>208</ele>
						<time>2025-06-25T09:54:48Z</time>
					</trkpt>
					<trkpt lat="45.670440" lon="4.753120">
						<ele>208</ele>
						<time>2025-06-25T09:54:58Z</time>
					</trkpt>
					<trkpt lat="45.670910" lon="4.753200">
						<ele>207</ele>
						<time>2025-06-25T09:56:01Z</time>
					</trkpt>
					<trkpt lat="45.671160" lon="4.753240">
						<ele>207</ele>
						<time>2025-06-25T09:56:34Z</time>
					</trkpt>
					<trkpt lat="45.671600" lon="4.753320">
						<ele>208</ele>
						<time>2025-06-25T09:57:34Z</time>
					</trkpt>
					<trkpt lat="45.671820" lon="4.753340">
						<ele>208</ele>
						<time>2025-06-25T09:58:03Z</time>
					</trkpt>
					<trkpt lat="45.671820" lon="4.753300">
						<ele>208</ele>
						<time>2025-06-25T09:58:07Z</time>
					</trkpt>
					<trkpt lat="45.671820" lon="4.753340">
						<ele>208</ele>
						<time>2025-06-25T09:58:11Z</time>
					</trkpt>
					<trkpt lat="45.671810" lon="4.753430">
						<ele>208</ele>
						<time>2025-06-25T09:58:19Z</time>
					</trkpt>
					<trkpt lat="45.671630" lon="4.754440">
						<ele>206</ele>
						<time>2025-06-25T09:59:56Z</time>
					</trkpt>
					<trkpt lat="45.671490" lon="4.755110">
						<ele>206</ele>
						<time>2025-06-25T10:01:01Z</time>
					</trkpt>
					<trkpt lat="45.671460" lon="4.755230">
						<ele>206</ele>
						<time>2025-06-25T10:01:13Z</time>
					</trkpt>
					<trkpt lat="45.671440" lon="4.755280">
						<ele>206</ele>
						<time>2025-06-25T10:01:19Z</time>
					</trkpt>
					<trkpt lat="45.671440" lon="4.755310">
						<ele>206</ele>
						<time>2025-06-25T10:01:22Z</time>
					</trkpt>
					<trkpt lat="45.671440" lon="4.755280">
						<ele>206</ele>
						<time>2025-06-25T10:01:24Z</time>
					</trkpt>
					<trkpt lat="45.671460" lon="4.755230">
						<ele>206</ele>
						<time>2025-06-25T10:01:30Z</time>
					</trkpt>
					<trkpt lat="45.671490" lon="4.755110">
						<ele>206</ele>
						<time>2025-06-25T10:01:42Z</time>
					</trkpt>
					<trkpt lat="45.671540" lon="4.755130">
						<ele>206</ele>
						<time>2025-06-25T10:01:49Z</time>
					</trkpt>
					<trkpt lat="45.671520" lon="4.755250">
						<ele>206</ele>
						<time>2025-06-25T10:02:00Z</time>
					</trkpt>
					<trkpt lat="45.672020" lon="4.755420">
						<ele>207</ele>
						<time>2025-06-25T10:03:09Z</time>
					</trkpt>
					<trkpt lat="45.672010" lon="4.755520">
						<ele>207</ele>
						<time>2025-06-25T10:03:18Z</time>
					</trkpt>
					<trkpt lat="45.672240" lon="4.755690">
						<ele>207</ele>
						<time>2025-06-25T10:03:53Z</time>
					</trkpt>
					<trkpt lat="45.672370" lon="4.755760">
						<ele>207</ele>
						<time>2025-06-25T10:04:11Z</time>
					</trkpt>
					<trkpt lat="45.672520" lon="4.755780">
						<ele>207</ele>
						<time>2025-06-25T10:04:31Z</time>
					</trkpt>
					<trkpt lat="45.672860" lon="4.755770">
						<ele>207</ele>
						<time>2025-06-25T10:05:17Z</time>
					</trkpt>
					<trkpt lat="45.673030" lon="4.755720">
						<ele>207</ele>
						<time>2025-06-25T10:05:40Z</time>
					</trkpt>
					<trkpt lat="45.673190" lon="4.755660">
						<ele>207</ele>
						<time>2025-06-25T10:06:02Z</time>
					</trkpt>
					<trkpt lat="45.673490" lon="4.755570">
						<ele>208</ele>
						<time>2025-06-25T10:06:43Z</time>
					</trkpt>
					<trkpt lat="45.673730" lon="4.755520">
						<ele>208</ele>
						<time>2025-06-25T10:07:15Z</time>
					</trkpt>
					<trkpt lat="45.673930" lon="4.755440">
						<ele>208</ele>
						<time>2025-06-25T10:07:43Z</time>
					</trkpt>
					<trkpt lat="45.673920" lon="4.755370">
						<ele>208</ele>
						<time>2025-06-25T10:07:49Z</time>
					</trkpt>
					<trkpt lat="45.673920" lon="4.755340">
						<ele>208</ele>
						<time>2025-06-25T10:07:52Z</time>
					</trkpt>
					<trkpt lat="45.673910" lon="4.755300">
						<ele>208</ele>
						<time>2025-06-25T10:07:56Z</time>
					</trkpt>
					<trkpt lat="45.673990" lon="4.755270">
						<ele>208</ele>
						<time>2025-06-25T10:08:07Z</time>
					</trkpt>
					<trkpt lat="45.674010" lon="4.755390">
						<ele>208</ele>
						<time>2025-06-25T10:08:19Z</time>
					</trkpt>
					<trkpt lat="45.673990" lon="4.755270">
						<ele>208</ele>
						<time>2025-06-25T10:08:30Z</time>
					</trkpt>
					<trkpt lat="45.673990" lon="4.755210">
						<ele>208</ele>
						<time>2025-06-25T10:08:36Z</time>
					</trkpt>
					<trkpt lat="45.674060" lon="4.755170">
						<ele>208</ele>
						<time>2025-06-25T10:08:46Z</time>
					</trkpt>
					<trkpt lat="45.674180" lon="4.755030">
						<ele>208</ele>
						<time>2025-06-25T10:09:07Z</time>
					</trkpt>
					<trkpt lat="45.674330" lon="4.754830">
						<ele>207</ele>
						<time>2025-06-25T10:09:34Z</time>
					</trkpt>
					<trkpt lat="45.674320" lon="4.754800">
						<ele>208</ele>
						<time>2025-06-25T10:09:37Z</time>
					</trkpt>
					<trkpt lat="45.674450" lon="4.754570">
						<ele>207</ele>
						<time>2025-06-25T10:10:05Z</time>
					</trkpt>
					<trkpt lat="45.674490" lon="4.754460">
						<ele>207</ele>
						<time>2025-06-25T10:10:16Z</time>
					</trkpt>
					<trkpt lat="45.674510" lon="4.754390">
						<ele>207</ele>
						<time>2025-06-25T10:10:23Z</time>
					</trkpt>
					<trkpt lat="45.674790" lon="4.754500">
						<ele>207</ele>
						<time>2025-06-25T10:11:02Z</time>
					</trkpt>
					<trkpt lat="45.674890" lon="4.754380">
						<ele>207</ele>
						<time>2025-06-25T10:11:19Z</time>
					</trkpt>
					<trkpt lat="45.674970" lon="4.754380">
						<ele>207</ele>
						<time>2025-06-25T10:11:30Z</time>
					</trkpt>
					<trkpt lat="45.675230" lon="4.754090">
						<ele>207</ele>
						<time>2025-06-25T10:12:14Z</time>
					</trkpt>
					<trkpt lat="45.675250" lon="4.754030">
						<ele>207</ele>
						<time>2025-06-25T10:12:20Z</time>
					</trkpt>
					<trkpt lat="45.675250" lon="4.753970">
						<ele>207</ele>
						<time>2025-06-25T10:12:26Z</time>
					</trkpt>
					<trkpt lat="45.675400" lon="4.753910">
						<ele>207</ele>
						<time>2025-06-25T10:12:47Z</time>
					</trkpt>
					<trkpt lat="45.675660" lon="4.753760">
						<ele>208</ele>
						<time>2025-06-25T10:13:24Z</time>
					</trkpt>
					<trkpt lat="45.675750" lon="4.753660">
						<ele>208</ele>
						<time>2025-06-25T10:13:39Z</time>
					</trkpt>
					<trkpt lat="45.675830" lon="4.753470">
						<ele>208</ele>
						<time>2025-06-25T10:14:00Z</time>
					</trkpt>
					<trkpt lat="45.675970" lon="4.752980">
						<ele>208</ele>
						<time>2025-06-25T10:14:49Z</time>
					</trkpt>
					<trkpt lat="45.676110" lon="4.752770">
						<ele>208</ele>
						<time>2025-06-25T10:15:16Z</time>
					</trkpt>
					<trkpt lat="45.676310" lon="4.752620">
						<ele>208</ele>
						<time>2025-06-25T10:15:46Z</time>
					</trkpt>
					<trkpt lat="45.676770" lon="4.752480">
						<ele>208</ele>
						<time>2025-06-25T10:16:49Z</time>
					</trkpt>
					<trkpt lat="45.677000" lon="4.752470">
						<ele>208</ele>
						<time>2025-06-25T10:17:20Z</time>
					</trkpt>
					<trkpt lat="45.677330" lon="4.752400">
						<ele>209</ele>
						<time>2025-06-25T10:18:04Z</time>
					</trkpt>
					<trkpt lat="45.677620" lon="4.752230">
						<ele>209</ele>
						<time>2025-06-25T10:18:46Z</time>
					</trkpt>
					<trkpt lat="45.677860" lon="4.752040">
						<ele>208</ele>
						<time>2025-06-25T10:19:23Z</time>
					</trkpt>
					<trkpt lat="45.677840" lon="4.752010">
						<ele>208</ele>
						<time>2025-06-25T10:19:27Z</time>
					</trkpt>
					<trkpt lat="45.677870" lon="4.751990">
						<ele>208</ele>
						<time>2025-06-25T10:19:31Z</time>
					</trkpt>
					<trkpt lat="45.677900" lon="4.751960">
						<ele>208</ele>
						<time>2025-06-25T10:19:36Z</time>
					</trkpt>
					<trkpt lat="45.677940" lon="4.751930">
						<ele>208</ele>
						<time>2025-06-25T10:19:42Z</time>
					</trkpt>
					<trkpt lat="45.677340" lon="4.750620">
						<ele>211</ele>
						<time>2025-06-25T10:22:08Z</time>
					</trkpt>
					<trkpt lat="45.677320" lon="4.750560">
						<ele>212</ele>
						<time>2025-06-25T10:22:14Z</time>
					</trkpt>
					<trkpt lat="45.677320" lon="4.750470">
						<ele>214</ele>
						<time>2025-06-25T10:22:23Z</time>
					</trkpt>
					<trkpt lat="45.677350" lon="4.750360">
						<ele>215</ele>
						<time>2025-06-25T10:22:34Z</time>
					</trkpt>
					<trkpt lat="45.677280" lon="4.750400">
						<ele>215</ele>
						<time>2025-06-25T10:22:44Z</time>
					</trkpt>
					<trkpt lat="45.677270" lon="4.750360">
						<ele>215</ele>
						<time>2025-06-25T10:22:48Z</time>
					</trkpt>
					<trkpt lat="45.677270" lon="4.750270">
						<ele>216</ele>
						<time>2025-06-25T10:22:56Z</time>
					</trkpt>
					<trkpt lat="45.677460" lon="4.750130">
						<ele>217</ele>
						<time>2025-06-25T10:23:25Z</time>
					</trkpt>
					<trkpt lat="45.677690" lon="4.750020">
						<ele>217</ele>
						<time>2025-06-25T10:23:57Z</time>
					</trkpt>
					<trkpt lat="45.678050" lon="4.749870">
						<ele>216</ele>
						<time>2025-06-25T10:24:47Z</time>
					</trkpt>
					<trkpt lat="45.678290" lon="4.749790">
						<ele>215</ele>
						<time>2025-06-25T10:25:20Z</time>
					</trkpt>
					<trkpt lat="45.678480" lon="4.749670">
						<ele>216</ele>
						<time>2025-06-25T10:25:48Z</time>
					</trkpt>
					<trkpt lat="45.678690" lon="4.749470">
						<ele>217</ele>
						<time>2025-06-25T10:26:21Z</time>
					</trkpt>
					<trkpt lat="45.678850" lon="4.749270">
						<ele>217</ele>
						<time>2025-06-25T10:26:50Z</time>
					</trkpt>
					<trkpt lat="45.678920" lon="4.749150">
						<ele>218</ele>
						<time>2025-06-25T10:27:04Z</time>
					</trkpt>
					<trkpt lat="45.678990" lon="4.748990">
						<ele>219</ele>
						<time>2025-06-25T10:27:22Z</time>
					</trkpt>
					<trkpt lat="45.679100" lon="4.748550">
						<ele>223</ele>
						<time>2025-06-25T10:28:05Z</time>
					</trkpt>
					<trkpt lat="45.679140" lon="4.748460">
						<ele>223</ele>
						<time>2025-06-25T10:28:15Z</time>
					</trkpt>
					<trkpt lat="45.679250" lon="4.748310">
						<ele>224</ele>
						<time>2025-06-25T10:28:36Z</time>
					</trkpt>
					<trkpt lat="45.679370" lon="4.748350">
						<ele>221</ele>
						<time>2025-06-25T10:28:52Z</time>
					</trkpt>
					<trkpt lat="45.679430" lon="4.748340">
						<ele>221</ele>
						<time>2025-06-25T10:29:00Z</time>
					</trkpt>
					<trkpt lat="45.679950" lon="4.747930">
						<ele>222</ele>
						<time>2025-06-25T10:30:19Z</time>
					</trkpt>
					<trkpt lat="45.680010" lon="4.747770">
						<ele>225</ele>
						<time>2025-06-25T10:30:36Z</time>
					</trkpt>
					<trkpt lat="45.680150" lon="4.747760">
						<ele>225</ele>
						<time>2025-06-25T10:30:55Z</time>
					</trkpt>
					<trkpt lat="45.680590" lon="4.747900">
						<ele>222</ele>
						<time>2025-06-25T10:31:55Z</time>
					</trkpt>
					<trkpt lat="45.680740" lon="4.747930">
						<ele>221</ele>
						<time>2025-06-25T10:32:15Z</time>
					</trkpt>
					<trkpt lat="45.680850" lon="4.747900">
						<ele>221</ele>
						<time>2025-06-25T10:32:30Z</time>
					</trkpt>
					<trkpt lat="45.680990" lon="4.747830">
						<ele>222</ele>
						<time>2025-06-25T10:32:50Z</time>
					</trkpt>
					<trkpt lat="45.681240" lon="4.747640">
						<ele>223</ele>
						<time>2025-06-25T10:33:28Z</time>
					</trkpt>
					<trkpt lat="45.681500" lon="4.747390">
						<ele>225</ele>
						<time>2025-06-25T10:34:10Z</time>
					</trkpt>
					<trkpt lat="45.681770" lon="4.747080">
						<ele>226</ele>
						<time>2025-06-25T10:34:56Z</time>
					</trkpt>
					<trkpt lat="45.682190" lon="4.746980">
						<ele>224</ele>
						<time>2025-06-25T10:35:53Z</time>
					</trkpt>
					<trkpt lat="45.682410" lon="4.746810">
						<ele>223</ele>
						<time>2025-06-25T10:36:26Z</time>
					</trkpt>
					<trkpt lat="45.682670" lon="4.746550">
						<ele>225</ele>
						<time>2025-06-25T10:37:08Z</time>
					</trkpt>
					<trkpt lat="45.683190" lon="4.746180">
						<ele>225</ele>
						<time>2025-06-25T10:38:26Z</time>
					</trkpt>
					<trkpt lat="45.683720" lon="4.745970">
						<ele>222</ele>
						<time>2025-06-25T10:39:39Z</time>
					</trkpt>
					<trkpt lat="45.683930" lon="4.745830">
						<ele>220</ele>
						<time>2025-06-25T10:40:10Z</time>
					</trkpt>
					<trkpt lat="45.683970" lon="4.745770">
						<ele>220</ele>
						<time>2025-06-25T10:40:18Z</time>
					</trkpt>
					<trkpt lat="45.684040" lon="4.745670">
						<ele>220</ele>
						<time>2025-06-25T10:40:31Z</time>
					</trkpt>
					<trkpt lat="45.684200" lon="4.745460">
						<ele>221</ele>
						<time>2025-06-25T10:41:00Z</time>
					</trkpt>
					<trkpt lat="45.684220" lon="4.745510">
						<ele>220</ele>
						<time>2025-06-25T10:41:05Z</time>
					</trkpt>
					<trkpt lat="45.684200" lon="4.745460">
						<ele>221</ele>
						<time>2025-06-25T10:41:11Z</time>
					</trkpt>
					<trkpt lat="45.684490" lon="4.745260">
						<ele>222</ele>
						<time>2025-06-25T10:41:54Z</time>
					</trkpt>
					<trkpt lat="45.684680" lon="4.745220">
						<ele>222</ele>
						<time>2025-06-25T10:42:19Z</time>
					</trkpt>
					<trkpt lat="45.684930" lon="4.745080">
						<ele>223</ele>
						<time>2025-06-25T10:42:55Z</time>
					</trkpt>
					<trkpt lat="45.686670" lon="4.743270">
						<ele>231</ele>
						<time>2025-06-25T10:47:42Z</time>
					</trkpt>
					<trkpt lat="45.686860" lon="4.743310">
						<ele>227</ele>
						<time>2025-06-25T10:48:08Z</time>
					</trkpt>
					<trkpt lat="45.686920" lon="4.743320">
						<ele>226</ele>
						<time>2025-06-25T10:48:16Z</time>
					</trkpt>
					<trkpt lat="45.687000" lon="4.743250">
						<ele>226</ele>
						<time>2025-06-25T10:48:28Z</time>
					</trkpt>
					<trkpt lat="45.687000" lon="4.743250">
						<ele>226</ele>
						<time>2025-06-25T10:48:28Z</time>
					</trkpt>
					<trkpt lat="45.687220" lon="4.742910">
						<ele>228</ele>
						<time>2025-06-25T10:49:12Z</time>
					</trkpt>
					<trkpt lat="45.687950" lon="4.740610">
						<ele>240</ele>
						<time>2025-06-25T10:53:07Z</time>
					</trkpt>
					<trkpt lat="45.688210" lon="4.740160">
						<ele>237</ele>
						<time>2025-06-25T10:54:02Z</time>
					</trkpt>
					<trkpt lat="45.688570" lon="4.739480">
						<ele>239</ele>
						<time>2025-06-25T10:55:21Z</time>
					</trkpt>
					<trkpt lat="45.689020" lon="4.738890">
						<ele>231</ele>
						<time>2025-06-25T10:56:43Z</time>
					</trkpt>
					<trkpt lat="45.689350" lon="4.738670">
						<ele>226</ele>
						<time>2025-06-25T10:57:31Z</time>
					</trkpt>
					<trkpt lat="45.689570" lon="4.738050">
						<ele>227</ele>
						<time>2025-06-25T10:58:36Z</time>
					</trkpt>
					<trkpt lat="45.689590" lon="4.737790">
						<ele>228</ele>
						<time>2025-06-25T10:59:00Z</time>
					</trkpt>
					<trkpt lat="45.689590" lon="4.737790">
						<ele>228</ele>
						<time>2025-06-25T10:59:00Z</time>
					</trkpt>
					<trkpt lat="45.689610" lon="4.737680">
						<ele>228</ele>
						<time>2025-06-25T10:59:11Z</time>
					</trkpt>
					<trkpt lat="45.689660" lon="4.737730">
						<ele>227</ele>
						<time>2025-06-25T10:59:19Z</time>
					</trkpt>
					<trkpt lat="45.689720" lon="4.737800">
						<ele>226</ele>
						<time>2025-06-25T10:59:29Z</time>
					</trkpt>
					<trkpt lat="45.690050" lon="4.738300">
						<ele>223</ele>
						<time>2025-06-25T11:00:34Z</time>
					</trkpt>
					<trkpt lat="45.690350" lon="4.738600">
						<ele>232</ele>
						<time>2025-06-25T11:01:22Z</time>
					</trkpt>
					<trkpt lat="45.690400" lon="4.738800">
						<ele>234</ele>
						<time>2025-06-25T11:01:42Z</time>
					</trkpt>
					<trkpt lat="45.690330" lon="4.739210">
						<ele>235</ele>
						<time>2025-06-25T11:02:21Z</time>
					</trkpt>
					<trkpt lat="45.690350" lon="4.739340">
						<ele>237</ele>
						<time>2025-06-25T11:02:34Z</time>
					</trkpt>
					<trkpt lat="45.690360" lon="4.739290">
						<ele>237</ele>
						<time>2025-06-25T11:02:39Z</time>
					</trkpt>
					<trkpt lat="45.690570" lon="4.738380">
						<ele>236</ele>
						<time>2025-06-25T11:04:08Z</time>
					</trkpt>
					<trkpt lat="45.690580" lon="4.738280">
						<ele>236</ele>
						<time>2025-06-25T11:04:18Z</time>
					</trkpt>
					<trkpt lat="45.690550" lon="4.737310">
						<ele>234</ele>
						<time>2025-06-25T11:05:48Z</time>
					</trkpt>
					<trkpt lat="45.690570" lon="4.737180">
						<ele>234</ele>
						<time>2025-06-25T11:06:00Z</time>
					</trkpt>
					<trkpt lat="45.690820" lon="4.736650">
						<ele>233</ele>
						<time>2025-06-25T11:07:00Z</time>
					</trkpt>
					<trkpt lat="45.690980" lon="4.736370">
						<ele>234</ele>
						<time>2025-06-25T11:07:34Z</time>
					</trkpt>
					<trkpt lat="45.691020" lon="4.736130">
						<ele>232</ele>
						<time>2025-06-25T11:07:57Z</time>
					</trkpt>
					<trkpt lat="45.691030" lon="4.735850">
						<ele>230</ele>
						<time>2025-06-25T11:08:23Z</time>
					</trkpt>
					<trkpt lat="45.691070" lon="4.735660">
						<ele>230</ele>
						<time>2025-06-25T11:08:41Z</time>
					</trkpt>
					<trkpt lat="45.691130" lon="4.735540">
						<ele>230</ele>
						<time>2025-06-25T11:08:55Z</time>
					</trkpt>
					<trkpt lat="45.691300" lon="4.735230">
						<ele>230</ele>
						<time>2025-06-25T11:09:32Z</time>
					</trkpt>
					<trkpt lat="45.691410" lon="4.735010">
						<ele>229</ele>
						<time>2025-06-25T11:09:57Z</time>
					</trkpt>
					<trkpt lat="45.691490" lon="4.734900">
						<ele>229</ele>
						<time>2025-06-25T11:10:12Z</time>
					</trkpt>
					<trkpt lat="45.691720" lon="4.734570">
						<ele>228</ele>
						<time>2025-06-25T11:10:55Z</time>
					</trkpt>
					<trkpt lat="45.691970" lon="4.733730">
						<ele>227</ele>
						<time>2025-06-25T11:12:20Z</time>
					</trkpt>
					<trkpt lat="45.692040" lon="4.733430">
						<ele>227</ele>
						<time>2025-06-25T11:12:50Z</time>
					</trkpt>
					<trkpt lat="45.692100" lon="4.733240">
						<ele>228</ele>
						<time>2025-06-25T11:13:09Z</time>
					</trkpt>
					<trkpt lat="45.692240" lon="4.732920">
						<ele>232</ele>
						<time>2025-06-25T11:13:45Z</time>
					</trkpt>
					<trkpt lat="45.692270" lon="4.732800">
						<ele>233</ele>
						<time>2025-06-25T11:13:56Z</time>
					</trkpt>
					<trkpt lat="45.692260" lon="4.732410">
						<ele>236</ele>
						<time>2025-06-25T11:14:33Z</time>
					</trkpt>
					<trkpt lat="45.691940" lon="4.731560">
						<ele>238</ele>
						<time>2025-06-25T11:16:03Z</time>
					</trkpt>
					<trkpt lat="45.691800" lon="4.731350">
						<ele>236</ele>
						<time>2025-06-25T11:16:30Z</time>
					</trkpt>
					<trkpt lat="45.691440" lon="4.730870">
						<ele>236</ele>
						<time>2025-06-25T11:17:36Z</time>
					</trkpt>
					<trkpt lat="45.691410" lon="4.730620">
						<ele>236</ele>
						<time>2025-06-25T11:17:59Z</time>
					</trkpt>
					<trkpt lat="45.691600" lon="4.730010">
						<ele>242</ele>
						<time>2025-06-25T11:19:01Z</time>
					</trkpt>
					<trkpt lat="45.691740" lon="4.729390">
						<ele>242</ele>
						<time>2025-06-25T11:20:02Z</time>
					</trkpt>
					<trkpt lat="45.691810" lon="4.729280">
						<ele>243</ele>
						<time>2025-06-25T11:20:16Z</time>
					</trkpt>
					<trkpt lat="45.692150" lon="4.729050">
						<ele>251</ele>
						<time>2025-06-25T11:21:06Z</time>
					</trkpt>
					<trkpt lat="45.692510" lon="4.728490">
						<ele>250</ele>
						<time>2025-06-25T11:22:17Z</time>
					</trkpt>
					<trkpt lat="45.692620" lon="4.728220">
						<ele>247</ele>
						<time>2025-06-25T11:22:46Z</time>
					</trkpt>
					<trkpt lat="45.692640" lon="4.728180">
						<ele>247</ele>
						<time>2025-06-25T11:22:51Z</time>
					</trkpt>
					<trkpt lat="45.692680" lon="4.728140">
						<ele>247</ele>
						<time>2025-06-25T11:22:57Z</time>
					</trkpt>
					<trkpt lat="45.692740" lon="4.728150">
						<ele>248</ele>
						<time>2025-06-25T11:23:05Z</time>
					</trkpt>
					<trkpt lat="45.692780" lon="4.728200">
						<ele>249</ele>
						<time>2025-06-25T11:23:13Z</time>
					</trkpt>
					<trkpt lat="45.692790" lon="4.728240">
						<ele>250</ele>
						<time>2025-06-25T11:23:17Z</time>
					</trkpt>
					<trkpt lat="45.692780" lon="4.728310">
						<ele>251</ele>
						<time>2025-06-25T11:23:23Z</time>
					</trkpt>
					<trkpt lat="45.692730" lon="4.728370">
						<ele>251</ele>
						<time>2025-06-25T11:23:32Z</time>
					</trkpt>
					<trkpt lat="45.692670" lon="4.728420">
						<ele>251</ele>
						<time>2025-06-25T11:23:41Z</time>
					</trkpt>
					<trkpt lat="45.692620" lon="4.728490">
						<ele>252</ele>
						<time>2025-06-25T11:23:50Z</time>
					</trkpt>
					<trkpt lat="45.692320" lon="4.729230">
						<ele>257</ele>
						<time>2025-06-25T11:25:10Z</time>
					</trkpt>
					<trkpt lat="45.692150" lon="4.729450">
						<ele>253</ele>
						<time>2025-06-25T11:25:41Z</time>
					</trkpt>
					<trkpt lat="45.692130" lon="4.729520">
						<ele>253</ele>
						<time>2025-06-25T11:25:48Z</time>
					</trkpt>
					<trkpt lat="45.692140" lon="4.729580">
						<ele>253</ele>
						<time>2025-06-25T11:25:54Z</time>
					</trkpt>
					<trkpt lat="45.692160" lon="4.729600">
						<ele>253</ele>
						<time>2025-06-25T11:25:57Z</time>
					</trkpt>
					<trkpt lat="45.692190" lon="4.729610">
						<ele>254</ele>
						<time>2025-06-25T11:26:01Z</time>
					</trkpt>
					<trkpt lat="45.692250" lon="4.729590">
						<ele>256</ele>
						<time>2025-06-25T11:26:09Z</time>
					</trkpt>
					<trkpt lat="45.692690" lon="4.729030">
						<ele>263</ele>
						<time>2025-06-25T11:27:28Z</time>
					</trkpt>
					<trkpt lat="45.692840" lon="4.728710">
						<ele>259</ele>
						<time>2025-06-25T11:28:04Z</time>
					</trkpt>
					<trkpt lat="45.692910" lon="4.728620">
						<ele>259</ele>
						<time>2025-06-25T11:28:16Z</time>
					</trkpt>
					<trkpt lat="45.692950" lon="4.728620">
						<ele>259</ele>
						<time>2025-06-25T11:28:22Z</time>
					</trkpt>
					<trkpt lat="45.692990" lon="4.728650">
						<ele>260</ele>
						<time>2025-06-25T11:28:28Z</time>
					</trkpt>
					<trkpt lat="45.693010" lon="4.728710">
						<ele>262</ele>
						<time>2025-06-25T11:28:34Z</time>
					</trkpt>
					<trkpt lat="45.693000" lon="4.728770">
						<ele>263</ele>
						<time>2025-06-25T11:28:40Z</time>
					</trkpt>
					<trkpt lat="45.692990" lon="4.728810">
						<ele>263</ele>
						<time>2025-06-25T11:28:44Z</time>
					</trkpt>
					<trkpt lat="45.692880" lon="4.728880">
						<ele>263</ele>
						<time>2025-06-25T11:29:00Z</time>
					</trkpt>
					<trkpt lat="45.692810" lon="4.729000">
						<ele>264</ele>
						<time>2025-06-25T11:29:14Z</time>
					</trkpt>
					<trkpt lat="45.692800" lon="4.729060">
						<ele>265</ele>
						<time>2025-06-25T11:29:20Z</time>
					</trkpt>
					<trkpt lat="45.692820" lon="4.729120">
						<ele>266</ele>
						<time>2025-06-25T11:29:26Z</time>
					</trkpt>
					<trkpt lat="45.692850" lon="4.729150">
						<ele>267</ele>
						<time>2025-06-25T11:29:31Z</time>
					</trkpt>
					<trkpt lat="45.692890" lon="4.729150">
						<ele>268</ele>
						<time>2025-06-25T11:29:36Z</time>
					</trkpt>
					<trkpt lat="45.693080" lon="4.729140">
						<ele>271</ele>
						<time>2025-06-25T11:30:02Z</time>
					</trkpt>
					<trkpt lat="45.693230" lon="4.729160">
						<ele>273</ele>
						<time>2025-06-25T11:30:22Z</time>
					</trkpt>
					<trkpt lat="45.693210" lon="4.728980">
						<ele>270</ele>
						<time>2025-06-25T11:30:39Z</time>
					</trkpt>
					<trkpt lat="45.693230" lon="4.728880">
						<ele>268</ele>
						<time>2025-06-25T11:30:48Z</time>
					</trkpt>
					<trkpt lat="45.693270" lon="4.728800">
						<ele>267</ele>
						<time>2025-06-25T11:30:58Z</time>
					</trkpt>
					<trkpt lat="45.693350" lon="4.728710">
						<ele>267</ele>
						<time>2025-06-25T11:31:11Z</time>
					</trkpt>
					<trkpt lat="45.693550" lon="4.728600">
						<ele>267</ele>
						<time>2025-06-25T11:31:40Z</time>
					</trkpt>
					<trkpt lat="45.693720" lon="4.728490">
						<ele>267</ele>
						<time>2025-06-25T11:32:05Z</time>
					</trkpt>
					<trkpt lat="45.693940" lon="4.728390">
						<ele>269</ele>
						<time>2025-06-25T11:32:36Z</time>
					</trkpt>
					<trkpt lat="45.694000" lon="4.728320">
						<ele>269</ele>
						<time>2025-06-25T11:32:46Z</time>
					</trkpt>
					<trkpt lat="45.694040" lon="4.728190">
						<ele>266</ele>
						<time>2025-06-25T11:32:59Z</time>
					</trkpt>
					<trkpt lat="45.694070" lon="4.728050">
						<ele>264</ele>
						<time>2025-06-25T11:33:13Z</time>
					</trkpt>
					<trkpt lat="45.694070" lon="4.727810">
						<ele>259</ele>
						<time>2025-06-25T11:33:35Z</time>
					</trkpt>
					<trkpt lat="45.694100" lon="4.727660">
						<ele>256</ele>
						<time>2025-06-25T11:33:50Z</time>
					</trkpt>
					<trkpt lat="45.694150" lon="4.727440">
						<ele>253</ele>
						<time>2025-06-25T11:34:11Z</time>
					</trkpt>
					<trkpt lat="45.694170" lon="4.727060">
						<ele>247</ele>
						<time>2025-06-25T11:34:47Z</time>
					</trkpt>
					<trkpt lat="45.694350" lon="4.726390">
						<ele>243</ele>
						<time>2025-06-25T11:35:54Z</time>
					</trkpt>
					<trkpt lat="45.694330" lon="4.726220">
						<ele>240</ele>
						<time>2025-06-25T11:36:10Z</time>
					</trkpt>
					<trkpt lat="45.694260" lon="4.726100">
						<ele>237</ele>
						<time>2025-06-25T11:36:24Z</time>
					</trkpt>
					<trkpt lat="45.694070" lon="4.726130">
						<ele>236</ele>
						<time>2025-06-25T11:36:50Z</time>
					</trkpt>
					<trkpt lat="45.694050" lon="4.726030">
						<ele>235</ele>
						<time>2025-06-25T11:37:00Z</time>
					</trkpt>
					<trkpt lat="45.694110" lon="4.725770">
						<ele>233</ele>
						<time>2025-06-25T11:37:25Z</time>
					</trkpt>
					<trkpt lat="45.694230" lon="4.725340">
						<ele>233</ele>
						<time>2025-06-25T11:38:08Z</time>
					</trkpt>
					<trkpt lat="45.694230" lon="4.725120">
						<ele>233</ele>
						<time>2025-06-25T11:38:29Z</time>
					</trkpt>
					<trkpt lat="45.694190" lon="4.724820">
						<ele>234</ele>
						<time>2025-06-25T11:38:57Z</time>
					</trkpt>
					<trkpt lat="45.694180" lon="4.724650">
						<ele>235</ele>
						<time>2025-06-25T11:39:13Z</time>
					</trkpt>
					<trkpt lat="45.694130" lon="4.724450">
						<ele>237</ele>
						<time>2025-06-25T11:39:33Z</time>
					</trkpt>
					<trkpt lat="45.694090" lon="4.724250">
						<ele>238</ele>
						<time>2025-06-25T11:39:52Z</time>
					</trkpt>
					<trkpt lat="45.694070" lon="4.724150">
						<ele>239</ele>
						<time>2025-06-25T11:40:02Z</time>
					</trkpt>
					<trkpt lat="45.694070" lon="4.724120">
						<ele>240</ele>
						<time>2025-06-25T11:40:05Z</time>
					</trkpt>
					<trkpt lat="45.694010" lon="4.723850">
						<ele>243</ele>
						<time>2025-06-25T11:40:31Z</time>
					</trkpt>
					<trkpt lat="45.694130" lon="4.723880">
						<ele>242</ele>
						<time>2025-06-25T11:40:47Z</time>
					</trkpt>
					<trkpt lat="45.694310" lon="4.724000">
						<ele>240</ele>
						<time>2025-06-25T11:41:14Z</time>
					</trkpt>
					<trkpt lat="45.694600" lon="4.724220">
						<ele>238</ele>
						<time>2025-06-25T11:41:58Z</time>
					</trkpt>
					<trkpt lat="45.694700" lon="4.724240">
						<ele>238</ele>
						<time>2025-06-25T11:42:11Z</time>
					</trkpt>
					<trkpt lat="45.694740" lon="4.724210">
						<ele>238</ele>
						<time>2025-06-25T11:42:17Z</time>
					</trkpt>
					<trkpt lat="45.694730" lon="4.724090">
						<ele>239</ele>
						<time>2025-06-25T11:42:28Z</time>
					</trkpt>
					<trkpt lat="45.694560" lon="4.723870">
						<ele>241</ele>
						<time>2025-06-25T11:42:59Z</time>
					</trkpt>
					<trkpt lat="45.694450" lon="4.723730">
						<ele>243</ele>
						<time>2025-06-25T11:43:19Z</time>
					</trkpt>
					<trkpt lat="45.694370" lon="4.723560">
						<ele>245</ele>
						<time>2025-06-25T11:43:38Z</time>
					</trkpt>
					<trkpt lat="45.694330" lon="4.723470">
						<ele>247</ele>
						<time>2025-06-25T11:43:48Z</time>
					</trkpt>
					<trkpt lat="45.694310" lon="4.723380">
						<ele>248</ele>
						<time>2025-06-25T11:43:57Z</time>
					</trkpt>
					<trkpt lat="45.694420" lon="4.723160">
						<ele>250</ele>
						<time>2025-06-25T11:44:22Z</time>
					</trkpt>
					<trkpt lat="45.694440" lon="4.722970">
						<ele>252</ele>
						<time>2025-06-25T11:44:40Z</time>
					</trkpt>
					<trkpt lat="45.694410" lon="4.722170">
						<ele>260</ele>
						<time>2025-06-25T11:45:54Z</time>
					</trkpt>
					<trkpt lat="45.694330" lon="4.721600">
						<ele>266</ele>
						<time>2025-06-25T11:46:49Z</time>
					</trkpt>
					<trkpt lat="45.694330" lon="4.721430">
						<ele>268</ele>
						<time>2025-06-25T11:47:04Z</time>
					</trkpt>
					<trkpt lat="45.694350" lon="4.721230">
						<ele>270</ele>
						<time>2025-06-25T11:47:23Z</time>
					</trkpt>
					<trkpt lat="45.694300" lon="4.721010">
						<ele>274</ele>
						<time>2025-06-25T11:47:45Z</time>
					</trkpt>
					<trkpt lat="45.694370" lon="4.719750">
						<ele>282</ele>
						<time>2025-06-25T11:49:43Z</time>
					</trkpt>
					<trkpt lat="45.694340" lon="4.719470">
						<ele>284</ele>
						<time>2025-06-25T11:50:09Z</time>
					</trkpt>
					<trkpt lat="45.694240" lon="4.719220">
						<ele>286</ele>
						<time>2025-06-25T11:50:36Z</time>
					</trkpt>
					<trkpt lat="45.693660" lon="4.718370">
						<ele>288</ele>
						<time>2025-06-25T11:52:27Z</time>
					</trkpt>
					<trkpt lat="45.693540" lon="4.718190">
						<ele>289</ele>
						<time>2025-06-25T11:52:50Z</time>
					</trkpt>
					<trkpt lat="45.693190" lon="4.717700">
						<ele>292</ele>
						<time>2025-06-25T11:53:55Z</time>
					</trkpt>
					<trkpt lat="45.692470" lon="4.716560">
						<ele>295</ele>
						<time>2025-06-25T11:56:18Z</time>
					</trkpt>
					<trkpt lat="45.692380" lon="4.716390">
						<ele>295</ele>
						<time>2025-06-25T11:56:38Z</time>
					</trkpt>
					<trkpt lat="45.692340" lon="4.716280">
						<ele>295</ele>
						<time>2025-06-25T11:56:50Z</time>
					</trkpt>
					<trkpt lat="45.692330" lon="4.716230">
						<ele>295</ele>
						<time>2025-06-25T11:56:55Z</time>
					</trkpt>
					<trkpt lat="45.692200" lon="4.715970">
						<ele>296</ele>
						<time>2025-06-25T11:57:25Z</time>
					</trkpt>
					<trkpt lat="45.692140" lon="4.715860">
						<ele>296</ele>
						<time>2025-06-25T11:57:38Z</time>
					</trkpt>
					<trkpt lat="45.691970" lon="4.715700">
						<ele>297</ele>
						<time>2025-06-25T11:58:05Z</time>
					</trkpt>
					<trkpt lat="45.691840" lon="4.715600">
						<ele>298</ele>
						<time>2025-06-25T11:58:24Z</time>
					</trkpt>
					<trkpt lat="45.691600" lon="4.715500">
						<ele>298</ele>
						<time>2025-06-25T11:58:58Z</time>
					</trkpt>
					<trkpt lat="45.691330" lon="4.715450">
						<ele>298</ele>
						<time>2025-06-25T11:59:34Z</time>
					</trkpt>
					<trkpt lat="45.691190" lon="4.715410">
						<ele>298</ele>
						<time>2025-06-25T11:59:53Z</time>
					</trkpt>
					<trkpt lat="45.691050" lon="4.715350">
						<ele>298</ele>
						<time>2025-06-25T12:00:13Z</time>
					</trkpt>
					<trkpt lat="45.690490" lon="4.715040">
						<ele>299</ele>
						<time>2025-06-25T12:01:33Z</time>
					</trkpt>
					<trkpt lat="45.689730" lon="4.714500">
						<ele>301</ele>
						<time>2025-06-25T12:03:26Z</time>
					</trkpt>
					<trkpt lat="45.689470" lon="4.714270">
						<ele>302</ele>
						<time>2025-06-25T12:04:07Z</time>
					</trkpt>
					<trkpt lat="45.689450" lon="4.714250">
						<ele>302</ele>
						<time>2025-06-25T12:04:10Z</time>
					</trkpt>
					<trkpt lat="45.689470" lon="4.714270">
						<ele>302</ele>
						<time>2025-06-25T12:04:13Z</time>
					</trkpt>
					<trkpt lat="45.689450" lon="4.714600">
						<ele>299</ele>
						<time>2025-06-25T12:04:44Z</time>
					</trkpt>
					<trkpt lat="45.689450" lon="4.714830">
						<ele>297</ele>
						<time>2025-06-25T12:05:06Z</time>
					</trkpt>
					<trkpt lat="45.689390" lon="4.715720">
						<ele>288</ele>
						<time>2025-06-25T12:06:29Z</time>
					</trkpt>
					<trkpt lat="45.689420" lon="4.716210">
						<ele>282</ele>
						<time>2025-06-25T12:07:15Z</time>
					</trkpt>
					<trkpt lat="45.689310" lon="4.716390">
						<ele>279</ele>
						<time>2025-06-25T12:07:37Z</time>
					</trkpt>
					<trkpt lat="45.689030" lon="4.716530">
						<ele>275</ele>
						<time>2025-06-25T12:08:17Z</time>
					</trkpt>
					<trkpt lat="45.688740" lon="4.716640">
						<ele>269</ele>
						<time>2025-06-25T12:08:57Z</time>
					</trkpt>
					<trkpt lat="45.688700" lon="4.716600">
						<ele>269</ele>
						<time>2025-06-25T12:09:03Z</time>
					</trkpt>
					<trkpt lat="45.688680" lon="4.716320">
						<ele>273</ele>
						<time>2025-06-25T12:09:29Z</time>
					</trkpt>
					<trkpt lat="45.688600" lon="4.716130">
						<ele>274</ele>
						<time>2025-06-25T12:09:50Z</time>
					</trkpt>
					<trkpt lat="45.688250" lon="4.715900">
						<ele>272</ele>
						<time>2025-06-25T12:10:41Z</time>
					</trkpt>
					<trkpt lat="45.688060" lon="4.715890">
						<ele>271</ele>
						<time>2025-06-25T12:11:07Z</time>
					</trkpt>
					<trkpt lat="45.687980" lon="4.715960">
						<ele>270</ele>
						<time>2025-06-25T12:11:19Z</time>
					</trkpt>
					<trkpt lat="45.687960" lon="4.716070">
						<ele>269</ele>
						<time>2025-06-25T12:11:30Z</time>
					</trkpt>
					<trkpt lat="45.687950" lon="4.716110">
						<ele>269</ele>
						<time>2025-06-25T12:11:34Z</time>
					</trkpt>
					<trkpt lat="45.687940" lon="4.716140">
						<ele>268</ele>
						<time>2025-06-25T12:11:37Z</time>
					</trkpt>
					<trkpt lat="45.687860" lon="4.716340">
						<ele>268</ele>
						<time>2025-06-25T12:11:59Z</time>
					</trkpt>
					<trkpt lat="45.687750" lon="4.716420">
						<ele>268</ele>
						<time>2025-06-25T12:12:15Z</time>
					</trkpt>
					<trkpt lat="45.687620" lon="4.716630">
						<ele>269</ele>
						<time>2025-06-25T12:12:41Z</time>
					</trkpt>
					<trkpt lat="45.687270" lon="4.716980">
						<ele>275</ele>
						<time>2025-06-25T12:13:38Z</time>
					</trkpt>
					<trkpt lat="45.687060" lon="4.717060">
						<ele>277</ele>
						<time>2025-06-25T12:14:07Z</time>
					</trkpt>
					<trkpt lat="45.686880" lon="4.717250">
						<ele>281</ele>
						<time>2025-06-25T12:14:37Z</time>
					</trkpt>
					<trkpt lat="45.686520" lon="4.718190">
						<ele>292</ele>
						<time>2025-06-25T12:16:17Z</time>
					</trkpt>
					<trkpt lat="45.686510" lon="4.718330">
						<ele>293</ele>
						<time>2025-06-25T12:16:30Z</time>
					</trkpt>
					<trkpt lat="45.686530" lon="4.718420">
						<ele>294</ele>
						<time>2025-06-25T12:16:39Z</time>
					</trkpt>
					<trkpt lat="45.686560" lon="4.718470">
						<ele>294</ele>
						<time>2025-06-25T12:16:45Z</time>
					</trkpt>
					<trkpt lat="45.686420" lon="4.718910">
						<ele>297</ele>
						<time>2025-06-25T12:17:30Z</time>
					</trkpt>
					<trkpt lat="45.686280" lon="4.719350">
						<ele>300</ele>
						<time>2025-06-25T12:18:15Z</time>
					</trkpt>
					<trkpt lat="45.686210" lon="4.719540">
						<ele>300</ele>
						<time>2025-06-25T12:18:35Z</time>
					</trkpt>
					<trkpt lat="45.686110" lon="4.719840">
						<ele>301</ele>
						<time>2025-06-25T12:19:06Z</time>
					</trkpt>
					<trkpt lat="45.686080" lon="4.719920">
						<ele>301</ele>
						<time>2025-06-25T12:19:15Z</time>
					</trkpt>
					<trkpt lat="45.686060" lon="4.719940">
						<ele>301</ele>
						<time>2025-06-25T12:19:18Z</time>
					</trkpt>
					<trkpt lat="45.686000" lon="4.719970">
						<ele>302</ele>
						<time>2025-06-25T12:19:26Z</time>
					</trkpt>
					<trkpt lat="45.685650" lon="4.719770">
						<ele>305</ele>
						<time>2025-06-25T12:20:17Z</time>
					</trkpt>
					<trkpt lat="45.685660" lon="4.719860">
						<ele>305</ele>
						<time>2025-06-25T12:20:25Z</time>
					</trkpt>
					<trkpt lat="45.685680" lon="4.719930">
						<ele>304</ele>
						<time>2025-06-25T12:20:32Z</time>
					</trkpt>
					<trkpt lat="45.685680" lon="4.720350">
						<ele>305</ele>
						<time>2025-06-25T12:21:11Z</time>
					</trkpt>
					<trkpt lat="45.685690" lon="4.720430">
						<ele>305</ele>
						<time>2025-06-25T12:21:19Z</time>
					</trkpt>
					<trkpt lat="45.685970" lon="4.720940">
						<ele>304</ele>
						<time>2025-06-25T12:22:19Z</time>
					</trkpt>
					<trkpt lat="45.686610" lon="4.723350">
						<ele>311</ele>
						<time>2025-06-25T12:26:20Z</time>
					</trkpt>
					<trkpt lat="45.686600" lon="4.723380">
						<ele>311</ele>
						<time>2025-06-25T12:26:23Z</time>
					</trkpt>
					<trkpt lat="45.686510" lon="4.723820">
						<ele>312</ele>
						<time>2025-06-25T12:27:06Z</time>
					</trkpt>
					<trkpt lat="45.686550" lon="4.724310">
						<ele>312</ele>
						<time>2025-06-25T12:27:52Z</time>
					</trkpt>
					<trkpt lat="45.686670" lon="4.724620">
						<ele>311</ele>
						<time>2025-06-25T12:28:25Z</time>
					</trkpt>
					<trkpt lat="45.686340" lon="4.725800">
						<ele>311</ele>
						<time>2025-06-25T12:30:23Z</time>
					</trkpt>
					<trkpt lat="45.686250" lon="4.726050">
						<ele>311</ele>
						<time>2025-06-25T12:30:49Z</time>
					</trkpt>
					<trkpt lat="45.686210" lon="4.725950">
						<ele>311</ele>
						<time>2025-06-25T12:31:00Z</time>
					</trkpt>
					<trkpt lat="45.685790" lon="4.724960">
						<ele>315</ele>
						<time>2025-06-25T12:32:48Z</time>
					</trkpt>
					<trkpt lat="45.685600" lon="4.724690">
						<ele>316</ele>
						<time>2025-06-25T12:33:24Z</time>
					</trkpt>
					<trkpt lat="45.684120" lon="4.722990">
						<ele>326</ele>
						<time>2025-06-25T12:37:37Z</time>
					</trkpt>
					<trkpt lat="45.683260" lon="4.722270">
						<ele>330</ele>
						<time>2025-06-25T12:39:50Z</time>
					</trkpt>
					<trkpt lat="45.682950" lon="4.722040">
						<ele>330</ele>
						<time>2025-06-25T12:40:37Z</time>
					</trkpt>
					<trkpt lat="45.682900" lon="4.722000">
						<ele>329</ele>
						<time>2025-06-25T12:40:44Z</time>
					</trkpt>
					<trkpt lat="45.681250" lon="4.720280">
						<ele>330</ele>
						<time>2025-06-25T12:45:17Z</time>
					</trkpt>
					<trkpt lat="45.680590" lon="4.719520">
						<ele>331</ele>
						<time>2025-06-25T12:47:10Z</time>
					</trkpt>
					<trkpt lat="45.680330" lon="4.719150">
						<ele>330</ele>
						<time>2025-06-25T12:47:59Z</time>
					</trkpt>
					<trkpt lat="45.680140" lon="4.718890">
						<ele>329</ele>
						<time>2025-06-25T12:48:34Z</time>
					</trkpt>
					<trkpt lat="45.680130" lon="4.718880">
						<ele>329</ele>
						<time>2025-06-25T12:48:35Z</time>
					</trkpt>
					<trkpt lat="45.679910" lon="4.720130">
						<ele>330</ele>
						<time>2025-06-25T12:50:35Z</time>
					</trkpt>
					<trkpt lat="45.679780" lon="4.720800">
						<ele>329</ele>
						<time>2025-06-25T12:51:40Z</time>
					</trkpt>
					<trkpt lat="45.679720" lon="4.720750">
						<ele>329</ele>
						<time>2025-06-25T12:51:50Z</time>
					</trkpt>
					<trkpt lat="45.678240" lon="4.719550">
						<ele>324</ele>
						<time>2025-06-25T12:55:36Z</time>
					</trkpt>
					<trkpt lat="45.677920" lon="4.719330">
						<ele>323</ele>
						<time>2025-06-25T12:56:24Z</time>
					</trkpt>
					<trkpt lat="45.677930" lon="4.719310">
						<ele>323</ele>
						<time>2025-06-25T12:56:26Z</time>
					</trkpt>
					<trkpt lat="45.677920" lon="4.719330">
						<ele>323</ele>
						<time>2025-06-25T12:56:28Z</time>
					</trkpt>
					<trkpt lat="45.677650" lon="4.719220">
						<ele>322</ele>
						<time>2025-06-25T12:57:06Z</time>
					</trkpt>
					<trkpt lat="45.677370" lon="4.719160">
						<ele>322</ele>
						<time>2025-06-25T12:57:44Z</time>
					</trkpt>
					<trkpt lat="45.677200" lon="4.719070">
						<ele>322</ele>
						<time>2025-06-25T12:58:08Z</time>
					</trkpt>
					<trkpt lat="45.676730" lon="4.718650">
						<ele>323</ele>
						<time>2025-06-25T12:59:22Z</time>
					</trkpt>
					<trkpt lat="45.675870" lon="4.717890">
						<ele>322</ele>
						<time>2025-06-25T13:01:37Z</time>
					</trkpt>
					<trkpt lat="45.675540" lon="4.717460">
						<ele>322</ele>
						<time>2025-06-25T13:02:36Z</time>
					</trkpt>
					<trkpt lat="45.675490" lon="4.717430">
						<ele>322</ele>
						<time>2025-06-25T13:02:43Z</time>
					</trkpt>
					<trkpt lat="45.675390" lon="4.717370">
						<ele>322</ele>
						<time>2025-06-25T13:02:58Z</time>
					</trkpt>
					<trkpt lat="45.675240" lon="4.717390">
						<ele>321</ele>
						<time>2025-06-25T13:03:18Z</time>
					</trkpt>
					<trkpt lat="45.674600" lon="4.717650">
						<ele>319</ele>
						<time>2025-06-25T13:04:47Z</time>
					</trkpt>
					<trkpt lat="45.673440" lon="4.717620">
						<ele>318</ele>
						<time>2025-06-25T13:07:22Z</time>
					</trkpt>
					<trkpt lat="45.673070" lon="4.717650">
						<ele>317</ele>
						<time>2025-06-25T13:08:11Z</time>
					</trkpt>
					<trkpt lat="45.672710" lon="4.717650">
						<ele>317</ele>
						<time>2025-06-25T13:08:59Z</time>
					</trkpt>
					<trkpt lat="45.671950" lon="4.717610">
						<ele>317</ele>
						<time>2025-06-25T13:10:41Z</time>
					</trkpt>
					<trkpt lat="45.670880" lon="4.717570">
						<ele>317</ele>
						<time>2025-06-25T13:13:03Z</time>
					</trkpt>
					<trkpt lat="45.670880" lon="4.717580">
						<ele>317</ele>
						<time>2025-06-25T13:13:04Z</time>
					</trkpt>
					<trkpt lat="45.670880" lon="4.717570">
						<ele>317</ele>
						<time>2025-06-25T13:13:05Z</time>
					</trkpt>
					<trkpt lat="45.670650" lon="4.717520">
						<ele>316</ele>
						<time>2025-06-25T13:13:36Z</time>
					</trkpt>
					<trkpt lat="45.670360" lon="4.717430">
						<ele>316</ele>
						<time>2025-06-25T13:14:16Z</time>
					</trkpt>
					<trkpt lat="45.670090" lon="4.717280">
						<ele>315</ele>
						<time>2025-06-25T13:14:55Z</time>
					</trkpt>
					<trkpt lat="45.669740" lon="4.717140">
						<ele>314</ele>
						<time>2025-06-25T13:15:43Z</time>
					</trkpt>
					<trkpt lat="45.669250" lon="4.717070">
						<ele>312</ele>
						<time>2025-06-25T13:16:49Z</time>
					</trkpt>
					<trkpt lat="45.668960" lon="4.717410">
						<ele>311</ele>
						<time>2025-06-25T13:17:39Z</time>
					</trkpt>
					<trkpt lat="45.668830" lon="4.717490">
						<ele>311</ele>
						<time>2025-06-25T13:17:58Z</time>
					</trkpt>
					<trkpt lat="45.667730" lon="4.717590">
						<ele>312</ele>
						<time>2025-06-25T13:20:25Z</time>
					</trkpt>
					<trkpt lat="45.667280" lon="4.717660">
						<ele>312</ele>
						<time>2025-06-25T13:21:25Z</time>
					</trkpt>
					<trkpt lat="45.667130" lon="4.717650">
						<ele>312</ele>
						<time>2025-06-25T13:21:45Z</time>
					</trkpt>
					<trkpt lat="45.666970" lon="4.717820">
						<ele>312</ele>
						<time>2025-06-25T13:22:12Z</time>
					</trkpt>
					<trkpt lat="45.666810" lon="4.717950">
						<ele>312</ele>
						<time>2025-06-25T13:22:36Z</time>
					</trkpt>
					<trkpt lat="45.666670" lon="4.718010">
						<ele>313</ele>
						<time>2025-06-25T13:22:56Z</time>
					</trkpt>
					<trkpt lat="45.666460" lon="4.718050">
						<ele>313</ele>
						<time>2025-06-25T13:23:24Z</time>
					</trkpt>
					<trkpt lat="45.666290" lon="4.718030">
						<ele>314</ele>
						<time>2025-06-25T13:23:47Z</time>
					</trkpt>
					<trkpt lat="45.666100" lon="4.717980">
						<ele>314</ele>
						<time>2025-06-25T13:24:13Z</time>
					</trkpt>
					<trkpt lat="45.664910" lon="4.717670">
						<ele>319</ele>
						<time>2025-06-25T13:26:54Z</time>
					</trkpt>
					<trkpt lat="45.664920" lon="4.717580">
						<ele>319</ele>
						<time>2025-06-25T13:27:03Z</time>
					</trkpt>
					<trkpt lat="45.664460" lon="4.717510">
						<ele>318</ele>
						<time>2025-06-25T13:28:04Z</time>
					</trkpt>
					<trkpt lat="45.663590" lon="4.717190">
						<ele>312</ele>
						<time>2025-06-25T13:30:04Z</time>
					</trkpt>
					<trkpt lat="45.663200" lon="4.716870">
						<ele>308</ele>
						<time>2025-06-25T13:31:04Z</time>
					</trkpt>
					<trkpt lat="45.662140" lon="4.716680">
						<ele>291</ele>
						<time>2025-06-25T13:33:27Z</time>
					</trkpt>
					<trkpt lat="45.662150" lon="4.716860">
						<ele>292</ele>
						<time>2025-06-25T13:33:44Z</time>
					</trkpt>
					<trkpt lat="45.662090" lon="4.716980">
						<ele>291</ele>
						<time>2025-06-25T13:33:57Z</time>
					</trkpt>
					<trkpt lat="45.662020" lon="4.717050">
						<ele>290</ele>
						<time>2025-06-25T13:34:09Z</time>
					</trkpt>
					<trkpt lat="45.661630" lon="4.717410">
						<ele>283</ele>
						<time>2025-06-25T13:35:11Z</time>
					</trkpt>
					<trkpt lat="45.661450" lon="4.717650">
						<ele>285</ele>
						<time>2025-06-25T13:35:44Z</time>
					</trkpt>
					<trkpt lat="45.661260" lon="4.717460">
						<ele>286</ele>
						<time>2025-06-25T13:36:15Z</time>
					</trkpt>
					<trkpt lat="45.660810" lon="4.717540">
						<ele>288</ele>
						<time>2025-06-25T13:37:15Z</time>
					</trkpt>
					<trkpt lat="45.660680" lon="4.717550">
						<ele>290</ele>
						<time>2025-06-25T13:37:32Z</time>
					</trkpt>
					<trkpt lat="45.660490" lon="4.717560">
						<ele>292</ele>
						<time>2025-06-25T13:37:58Z</time>
					</trkpt>
					<trkpt lat="45.660380" lon="4.717560">
						<ele>293</ele>
						<time>2025-06-25T13:38:12Z</time>
					</trkpt>
					<trkpt lat="45.660170" lon="4.717720">
						<ele>296</ele>
						<time>2025-06-25T13:38:44Z</time>
					</trkpt>
					<trkpt lat="45.660130" lon="4.717830">
						<ele>296</ele>
						<time>2025-06-25T13:38:56Z</time>
					</trkpt>
					<trkpt lat="45.660090" lon="4.717780">
						<ele>297</ele>
						<time>2025-06-25T13:39:03Z</time>
					</trkpt>
					<trkpt lat="45.659990" lon="4.718040">
						<ele>298</ele>
						<time>2025-06-25T13:39:31Z</time>
					</trkpt>
					<trkpt lat="45.659900" lon="4.718190">
						<ele>299</ele>
						<time>2025-06-25T13:39:49Z</time>
					</trkpt>
					<trkpt lat="45.659700" lon="4.718430">
						<ele>301</ele>
						<time>2025-06-25T13:40:24Z</time>
					</trkpt>
					<trkpt lat="45.659660" lon="4.718480">
						<ele>301</ele>
						<time>2025-06-25T13:40:31Z</time>
					</trkpt>
					<trkpt lat="45.659470" lon="4.718630">
						<ele>302</ele>
						<time>2025-06-25T13:41:00Z</time>
					</trkpt>
					<trkpt lat="45.659390" lon="4.718700">
						<ele>303</ele>
						<time>2025-06-25T13:41:12Z</time>
					</trkpt>
					<trkpt lat="45.659320" lon="4.718720">
						<ele>303</ele>
						<time>2025-06-25T13:41:22Z</time>
					</trkpt>
					<trkpt lat="45.659250" lon="4.718730">
						<ele>303</ele>
						<time>2025-06-25T13:41:31Z</time>
					</trkpt>
					<trkpt lat="45.659070" lon="4.718700">
						<ele>304</ele>
						<time>2025-06-25T13:41:55Z</time>
					</trkpt>
					<trkpt lat="45.658960" lon="4.718680">
						<ele>305</ele>
						<time>2025-06-25T13:42:10Z</time>
					</trkpt>
					<trkpt lat="45.658630" lon="4.718650">
						<ele>306</ele>
						<time>2025-06-25T13:42:54Z</time>
					</trkpt>
					<trkpt lat="45.658620" lon="4.718760">
						<ele>305</ele>
						<time>2025-06-25T13:43:05Z</time>
					</trkpt>
					<trkpt lat="45.658620" lon="4.718800">
						<ele>305</ele>
						<time>2025-06-25T13:43:08Z</time>
					</trkpt>
					</trkseg>
				</trk>
			</gpx>